sensor_id;sensor_type;location;lat;lon;timestamp;P1;durP1;ratioP1;P2;durP2;ratioP2
76725;SDS011;65651;53.154;17.916;2023-08-21T00:00:31;12.00;;;9.90;;
76725;SDS011;65651;53.154;17.916;2023-08-21T00:03:18;12.60;;;10.60;;
76725;SDS011;65651;53.154;17.916;2023-08-21T00:05:45;13.40;;;10.40;;
76725;SDS011;65651;53.154;17.916;2023-08-21T00:08:12;13.30;;;10.20;;
76725;SDS011;65651;53.154;17.916;2023-08-21T00:10:42;13.90;;;10.10;;
76725;SDS011;65651;53.154;17.916;2023-08-21T00:13:10;11.70;;;10.20;;
76725;SDS011;65651;53.154;17.916;2023-08-21T00:15:38;12.60;;;9.40;;
76725;SDS011;65651;53.154;17.916;2023-08-21T00:18:05;11.70;;;10.20;;
76725;SDS011;65651;53.154;17.916;2023-08-21T00:20:33;14.30;;;9.90;;
76725;SDS011;65651;53.154;17.916;2023-08-21T00:23:03;11.10;;;8.80;;
76725;SDS011;65651;53.154;17.916;2023-08-21T00:25:31;11.40;;;9.80;;
76725;SDS011;65651;53.154;17.916;2023-08-21T00:27:58;12.20;;;9.80;;
76725;SDS011;65651;53.154;17.916;2023-08-21T00:30:27;13.60;;;10.20;;
76725;SDS011;65651;53.154;17.916;2023-08-21T00:32:54;12.90;;;9.80;;
76725;SDS011;65651;53.154;17.916;2023-08-21T00:35:25;11.80;;;10.40;;
76725;SDS011;65651;53.154;17.916;2023-08-21T00:37:52;16.60;;;9.90;;
76725;SDS011;65651;53.154;17.916;2023-08-21T00:40:19;12.70;;;10.10;;
76725;SDS011;65651;53.154;17.916;2023-08-21T00:42:47;13.30;;;10.40;;
76725;SDS011;65651;53.154;17.916;2023-08-21T00:45:14;10.60;;;9.50;;
76725;SDS011;65651;53.154;17.916;2023-08-21T00:47:42;13.30;;;10.30;;
76725;SDS011;65651;53.154;17.916;2023-08-21T00:50:10;12.30;;;10.00;;
76725;SDS011;65651;53.154;17.916;2023-08-21T00:52:42;12.70;;;10.20;;
76725;SDS011;65651;53.154;17.916;2023-08-21T00:55:13;13.30;;;10.90;;
76725;SDS011;65651;53.154;17.916;2023-08-21T00:57:41;12.90;;;11.20;;
76725;SDS011;65651;53.154;17.916;2023-08-21T01:00:09;13.90;;;10.90;;
76725;SDS011;65651;53.154;17.916;2023-08-21T01:02:37;11.00;;;9.60;;
76725;SDS011;65651;53.154;17.916;2023-08-21T01:05:05;12.40;;;10.40;;
76725;SDS011;65651;53.154;17.916;2023-08-21T01:07:34;13.30;;;10.70;;
76725;SDS011;65651;53.154;17.916;2023-08-21T01:10:15;12.40;;;10.70;;
76725;SDS011;65651;53.154;17.916;2023-08-21T01:12:56;12.60;;;9.80;;
76725;SDS011;65651;53.154;17.916;2023-08-21T01:15:44;11.70;;;9.90;;
76725;SDS011;65651;53.154;17.916;2023-08-21T01:18:14;12.10;;;9.50;;
76725;SDS011;65651;53.154;17.916;2023-08-21T01:20:44;12.50;;;9.40;;
76725;SDS011;65651;53.154;17.916;2023-08-21T01:25:59;13.00;;;10.10;;
76725;SDS011;65651;53.154;17.916;2023-08-21T01:28:27;13.90;;;10.10;;
76725;SDS011;65651;53.154;17.916;2023-08-21T01:31:00;13.40;;;11.20;;
76725;SDS011;65651;53.154;17.916;2023-08-21T01:33:32;14.00;;;11.00;;
76725;SDS011;65651;53.154;17.916;2023-08-21T01:36:05;10.00;;;8.20;;
76725;SDS011;65651;53.154;17.916;2023-08-21T01:38:33;13.90;;;9.10;;
76725;SDS011;65651;53.154;17.916;2023-08-21T01:41:02;12.20;;;9.20;;
76725;SDS011;65651;53.154;17.916;2023-08-21T01:43:29;10.50;;;8.10;;
76725;SDS011;65651;53.154;17.916;2023-08-21T01:46:00;13.40;;;9.00;;
76725;SDS011;65651;53.154;17.916;2023-08-21T01:48:29;9.90;;;7.60;;
76725;SDS011;65651;53.154;17.916;2023-08-21T01:50:57;9.50;;;8.00;;
76725;SDS011;65651;53.154;17.916;2023-08-21T01:53:24;10.70;;;8.20;;
76725;SDS011;65651;53.154;17.916;2023-08-21T01:55:52;8.90;;;7.90;;
76725;SDS011;65651;53.154;17.916;2023-08-21T01:58:19;10.90;;;8.60;;
76725;SDS011;65651;53.154;17.916;2023-08-21T02:00:47;9.90;;;7.90;;
76725;SDS011;65651;53.154;17.916;2023-08-21T02:03:14;11.30;;;8.50;;
76725;SDS011;65651;53.154;17.916;2023-08-21T02:05:44;15.00;;;9.00;;
76725;SDS011;65651;53.154;17.916;2023-08-21T02:08:13;13.10;;;8.70;;
76725;SDS011;65651;53.154;17.916;2023-08-21T02:10:50;11.10;;;8.90;;
76725;SDS011;65651;53.154;17.916;2023-08-21T02:13:19;11.40;;;9.00;;
76725;SDS011;65651;53.154;17.916;2023-08-21T02:15:46;12.50;;;8.90;;
76725;SDS011;65651;53.154;17.916;2023-08-21T02:18:14;12.50;;;9.70;;
76725;SDS011;65651;53.154;17.916;2023-08-21T02:20:42;13.50;;;10.10;;
76725;SDS011;65651;53.154;17.916;2023-08-21T02:23:10;12.80;;;10.00;;
76725;SDS011;65651;53.154;17.916;2023-08-21T02:25:37;12.90;;;9.40;;
76725;SDS011;65651;53.154;17.916;2023-08-21T02:28:05;11.90;;;9.00;;
76725;SDS011;65651;53.154;17.916;2023-08-21T02:30:33;11.60;;;8.40;;
76725;SDS011;65651;53.154;17.916;2023-08-21T02:33:00;10.90;;;8.00;;
76725;SDS011;65651;53.154;17.916;2023-08-21T02:35:28;11.30;;;8.20;;
76725;SDS011;65651;53.154;17.916;2023-08-21T02:37:55;9.50;;;8.00;;
76725;SDS011;65651;53.154;17.916;2023-08-21T02:40:23;10.70;;;8.40;;
76725;SDS011;65651;53.154;17.916;2023-08-21T02:42:50;10.70;;;8.60;;
76725;SDS011;65651;53.154;17.916;2023-08-21T02:45:17;11.80;;;8.20;;
76725;SDS011;65651;53.154;17.916;2023-08-21T02:47:46;11.10;;;9.00;;
76725;SDS011;65651;53.154;17.916;2023-08-21T02:50:13;11.20;;;9.20;;
76725;SDS011;65651;53.154;17.916;2023-08-21T02:52:40;10.70;;;8.80;;
76725;SDS011;65651;53.154;17.916;2023-08-21T02:55:08;13.30;;;8.70;;
76725;SDS011;65651;53.154;17.916;2023-08-21T02:57:38;11.20;;;7.60;;
76725;SDS011;65651;53.154;17.916;2023-08-21T03:00:05;11.60;;;7.30;;
76725;SDS011;65651;53.154;17.916;2023-08-21T03:02:35;12.40;;;6.90;;
76725;SDS011;65651;53.154;17.916;2023-08-21T03:05:03;10.90;;;7.70;;
76725;SDS011;65651;53.154;17.916;2023-08-21T03:07:31;10.90;;;7.40;;
76725;SDS011;65651;53.154;17.916;2023-08-21T03:09:59;9.00;;;7.10;;
76725;SDS011;65651;53.154;17.916;2023-08-21T03:12:26;13.90;;;7.60;;
76725;SDS011;65651;53.154;17.916;2023-08-21T03:14:53;11.10;;;7.10;;
76725;SDS011;65651;53.154;17.916;2023-08-21T03:17:21;10.70;;;6.70;;
76725;SDS011;65651;53.154;17.916;2023-08-21T03:19:48;12.30;;;6.90;;
76725;SDS011;65651;53.154;17.916;2023-08-21T03:22:16;13.00;;;6.90;;
76725;SDS011;65651;53.154;17.916;2023-08-21T03:24:43;12.30;;;7.20;;
76725;SDS011;65651;53.154;17.916;2023-08-21T03:27:11;9.80;;;6.10;;
76725;SDS011;65651;53.154;17.916;2023-08-21T03:29:41;9.80;;;6.80;;
76725;SDS011;65651;53.154;17.916;2023-08-21T03:32:15;9.90;;;6.00;;
76725;SDS011;65651;53.154;17.916;2023-08-21T03:34:43;8.10;;;6.00;;
76725;SDS011;65651;53.154;17.916;2023-08-21T03:37:11;11.10;;;6.70;;
76725;SDS011;65651;53.154;17.916;2023-08-21T03:39:39;11.40;;;6.80;;
76725;SDS011;65651;53.154;17.916;2023-08-21T03:42:08;11.30;;;6.70;;
76725;SDS011;65651;53.154;17.916;2023-08-21T03:44:37;12.10;;;6.50;;
76725;SDS011;65651;53.154;17.916;2023-08-21T03:47:07;11.60;;;6.70;;
76725;SDS011;65651;53.154;17.916;2023-08-21T03:49:39;10.20;;;6.60;;
76725;SDS011;65651;53.154;17.916;2023-08-21T03:52:07;10.20;;;6.90;;
76725;SDS011;65651;53.154;17.916;2023-08-21T03:54:36;11.90;;;6.60;;
76725;SDS011;65651;53.154;17.916;2023-08-21T03:57:03;12.70;;;6.40;;
76725;SDS011;65651;53.154;17.916;2023-08-21T03:59:31;11.50;;;5.60;;
76725;SDS011;65651;53.154;17.916;2023-08-21T04:02:02;9.00;;;5.60;;
76725;SDS011;65651;53.154;17.916;2023-08-21T04:04:32;9.80;;;6.20;;
76725;SDS011;65651;53.154;17.916;2023-08-21T04:07:00;8.10;;;5.80;;
76725;SDS011;65651;53.154;17.916;2023-08-21T04:09:28;9.80;;;6.80;;
76725;SDS011;65651;53.154;17.916;2023-08-21T04:11:55;11.30;;;6.00;;
76725;SDS011;65651;53.154;17.916;2023-08-21T04:14:23;11.80;;;6.10;;
76725;SDS011;65651;53.154;17.916;2023-08-21T04:16:50;8.80;;;5.80;;
76725;SDS011;65651;53.154;17.916;2023-08-21T04:19:22;9.20;;;6.00;;
76725;SDS011;65651;53.154;17.916;2023-08-21T04:21:52;10.20;;;6.10;;
76725;SDS011;65651;53.154;17.916;2023-08-21T04:24:20;9.90;;;6.00;;
76725;SDS011;65651;53.154;17.916;2023-08-21T04:26:47;8.30;;;5.80;;
76725;SDS011;65651;53.154;17.916;2023-08-21T04:29:14;9.60;;;6.10;;
76725;SDS011;65651;53.154;17.916;2023-08-21T04:31:42;7.90;;;5.40;;
76725;SDS011;65651;53.154;17.916;2023-08-21T04:34:09;9.80;;;5.80;;
76725;SDS011;65651;53.154;17.916;2023-08-21T04:36:38;11.10;;;5.30;;
76725;SDS011;65651;53.154;17.916;2023-08-21T04:39:06;9.90;;;6.00;;
76725;SDS011;65651;53.154;17.916;2023-08-21T04:41:35;8.50;;;6.10;;
76725;SDS011;65651;53.154;17.916;2023-08-21T04:44:04;6.80;;;5.60;;
76725;SDS011;65651;53.154;17.916;2023-08-21T04:46:32;7.10;;;4.90;;
76725;SDS011;65651;53.154;17.916;2023-08-21T04:48:59;8.50;;;5.30;;
76725;SDS011;65651;53.154;17.916;2023-08-21T04:51:27;7.50;;;4.80;;
76725;SDS011;65651;53.154;17.916;2023-08-21T04:53:54;6.50;;;4.50;;
76725;SDS011;65651;53.154;17.916;2023-08-21T04:56:22;9.70;;;4.50;;
76725;SDS011;65651;53.154;17.916;2023-08-21T04:58:49;7.80;;;5.10;;
76725;SDS011;65651;53.154;17.916;2023-08-21T05:01:18;6.90;;;3.70;;
76725;SDS011;65651;53.154;17.916;2023-08-21T05:03:47;4.80;;;4.30;;
76725;SDS011;65651;53.154;17.916;2023-08-21T05:06:14;8.00;;;4.20;;
76725;SDS011;65651;53.154;17.916;2023-08-21T05:08:42;5.70;;;4.10;;
76725;SDS011;65651;53.154;17.916;2023-08-21T05:11:09;5.20;;;3.70;;
76725;SDS011;65651;53.154;17.916;2023-08-21T05:13:41;4.90;;;3.50;;
76725;SDS011;65651;53.154;17.916;2023-08-21T05:16:10;4.60;;;3.70;;
76725;SDS011;65651;53.154;17.916;2023-08-21T05:18:39;4.50;;;3.80;;
76725;SDS011;65651;53.154;17.916;2023-08-21T05:21:07;4.90;;;3.80;;
76725;SDS011;65651;53.154;17.916;2023-08-21T05:23:37;6.50;;;4.10;;
76725;SDS011;65651;53.154;17.916;2023-08-21T05:26:07;5.90;;;3.70;;
76725;SDS011;65651;53.154;17.916;2023-08-21T05:28:34;4.90;;;3.80;;
76725;SDS011;65651;53.154;17.916;2023-08-21T05:31:02;5.50;;;3.40;;
76725;SDS011;65651;53.154;17.916;2023-08-21T05:33:35;4.00;;;3.40;;
76725;SDS011;65651;53.154;17.916;2023-08-21T05:36:03;5.20;;;4.10;;
76725;SDS011;65651;53.154;17.916;2023-08-21T05:38:31;5.30;;;4.00;;
76725;SDS011;65651;53.154;17.916;2023-08-21T05:41:01;5.50;;;3.70;;
76725;SDS011;65651;53.154;17.916;2023-08-21T05:43:29;6.00;;;3.60;;
76725;SDS011;65651;53.154;17.916;2023-08-21T05:45:58;4.40;;;3.90;;
76725;SDS011;65651;53.154;17.916;2023-08-21T05:48:25;8.00;;;4.10;;
76725;SDS011;65651;53.154;17.916;2023-08-21T05:50:52;7.50;;;3.20;;
76725;SDS011;65651;53.154;17.916;2023-08-21T05:53:20;5.50;;;3.40;;
76725;SDS011;65651;53.154;17.916;2023-08-21T05:55:47;4.00;;;3.10;;
76725;SDS011;65651;53.154;17.916;2023-08-21T05:58:18;5.10;;;3.40;;
76725;SDS011;65651;53.154;17.916;2023-08-21T06:00:46;5.40;;;2.80;;
76725;SDS011;65651;53.154;17.916;2023-08-21T06:03:14;4.10;;;2.90;;
76725;SDS011;65651;53.154;17.916;2023-08-21T06:06:05;6.30;;;3.20;;
76725;SDS011;65651;53.154;17.916;2023-08-21T06:08:32;5.90;;;3.10;;
76725;SDS011;65651;53.154;17.916;2023-08-21T06:10:59;3.40;;;2.70;;
76725;SDS011;65651;53.154;17.916;2023-08-21T06:13:26;3.90;;;2.80;;
76725;SDS011;65651;53.154;17.916;2023-08-21T06:15:54;8.60;;;2.80;;
76725;SDS011;65651;53.154;17.916;2023-08-21T06:18:23;3.40;;;2.80;;
76725;SDS011;65651;53.154;17.916;2023-08-21T06:20:50;4.60;;;2.00;;
76725;SDS011;65651;53.154;17.916;2023-08-21T06:23:20;3.60;;;2.70;;
76725;SDS011;65651;53.154;17.916;2023-08-21T06:25:48;4.30;;;2.80;;
76725;SDS011;65651;53.154;17.916;2023-08-21T06:28:16;3.30;;;2.10;;
76725;SDS011;65651;53.154;17.916;2023-08-21T06:30:44;3.70;;;2.20;;
76725;SDS011;65651;53.154;17.916;2023-08-21T06:33:12;3.90;;;2.10;;
76725;SDS011;65651;53.154;17.916;2023-08-21T06:35:39;4.70;;;2.40;;
76725;SDS011;65651;53.154;17.916;2023-08-21T06:38:06;4.70;;;2.50;;
76725;SDS011;65651;53.154;17.916;2023-08-21T06:40:35;3.50;;;2.30;;
76725;SDS011;65651;53.154;17.916;2023-08-21T06:43:02;4.10;;;2.50;;
76725;SDS011;65651;53.154;17.916;2023-08-21T06:45:33;3.40;;;2.50;;
76725;SDS011;65651;53.154;17.916;2023-08-21T06:48:02;3.90;;;2.60;;
76725;SDS011;65651;53.154;17.916;2023-08-21T06:50:30;3.20;;;2.30;;
76725;SDS011;65651;53.154;17.916;2023-08-21T06:52:57;3.50;;;2.30;;
76725;SDS011;65651;53.154;17.916;2023-08-21T06:55:25;4.00;;;2.10;;
76725;SDS011;65651;53.154;17.916;2023-08-21T06:57:52;5.10;;;2.40;;
76725;SDS011;65651;53.154;17.916;2023-08-21T07:00:19;3.30;;;2.30;;
76725;SDS011;65651;53.154;17.916;2023-08-21T07:02:47;3.40;;;2.10;;
76725;SDS011;65651;53.154;17.916;2023-08-21T07:05:14;4.50;;;1.80;;
76725;SDS011;65651;53.154;17.916;2023-08-21T07:07:42;4.40;;;2.30;;
76725;SDS011;65651;53.154;17.916;2023-08-21T07:10:09;3.60;;;2.20;;
76725;SDS011;65651;53.154;17.916;2023-08-21T07:12:39;5.20;;;2.60;;
76725;SDS011;65651;53.154;17.916;2023-08-21T07:15:07;3.50;;;2.10;;
76725;SDS011;65651;53.154;17.916;2023-08-21T07:17:35;5.80;;;2.20;;
76725;SDS011;65651;53.154;17.916;2023-08-21T07:20:02;2.80;;;1.80;;
76725;SDS011;65651;53.154;17.916;2023-08-21T07:22:30;3.40;;;2.10;;
76725;SDS011;65651;53.154;17.916;2023-08-21T07:24:58;3.50;;;1.90;;
76725;SDS011;65651;53.154;17.916;2023-08-21T07:27:27;3.50;;;2.20;;
76725;SDS011;65651;53.154;17.916;2023-08-21T07:29:55;4.30;;;1.60;;
76725;SDS011;65651;53.154;17.916;2023-08-21T07:32:22;3.80;;;1.80;;
76725;SDS011;65651;53.154;17.916;2023-08-21T07:34:53;4.60;;;2.00;;
76725;SDS011;65651;53.154;17.916;2023-08-21T07:37:21;4.00;;;2.00;;
76725;SDS011;65651;53.154;17.916;2023-08-21T07:39:48;3.60;;;2.10;;
76725;SDS011;65651;53.154;17.916;2023-08-21T07:42:15;5.00;;;1.80;;
76725;SDS011;65651;53.154;17.916;2023-08-21T07:44:44;4.00;;;1.80;;
76725;SDS011;65651;53.154;17.916;2023-08-21T07:47:13;6.30;;;2.00;;
76725;SDS011;65651;53.154;17.916;2023-08-21T07:49:40;4.80;;;1.70;;
76725;SDS011;65651;53.154;17.916;2023-08-21T07:52:07;3.20;;;1.80;;
76725;SDS011;65651;53.154;17.916;2023-08-21T07:54:34;5.70;;;2.00;;
76725;SDS011;65651;53.154;17.916;2023-08-21T07:57:02;6.80;;;1.80;;
76725;SDS011;65651;53.154;17.916;2023-08-21T07:59:31;3.10;;;1.40;;
76725;SDS011;65651;53.154;17.916;2023-08-21T08:01:58;2.90;;;1.50;;
76725;SDS011;65651;53.154;17.916;2023-08-21T08:04:27;6.10;;;2.40;;
76725;SDS011;65651;53.154;17.916;2023-08-21T08:06:55;4.50;;;1.80;;
76725;SDS011;65651;53.154;17.916;2023-08-21T08:09:22;3.10;;;1.50;;
76725;SDS011;65651;53.154;17.916;2023-08-21T08:11:50;3.00;;;1.70;;
76725;SDS011;65651;53.154;17.916;2023-08-21T08:14:18;2.00;;;1.70;;
76725;SDS011;65651;53.154;17.916;2023-08-21T08:16:46;3.20;;;1.60;;
76725;SDS011;65651;53.154;17.916;2023-08-21T08:19:17;3.00;;;1.60;;
76725;SDS011;65651;53.154;17.916;2023-08-21T08:22:05;3.30;;;1.70;;
76725;SDS011;65651;53.154;17.916;2023-08-21T08:24:45;3.60;;;1.80;;
76725;SDS011;65651;53.154;17.916;2023-08-21T08:27:25;3.60;;;1.50;;
76725;SDS011;65651;53.154;17.916;2023-08-21T08:29:52;4.30;;;2.00;;
76725;SDS011;65651;53.154;17.916;2023-08-21T08:32:20;3.90;;;1.50;;
76725;SDS011;65651;53.154;17.916;2023-08-21T08:34:48;4.30;;;1.40;;
76725;SDS011;65651;53.154;17.916;2023-08-21T08:37:15;3.40;;;1.60;;
76725;SDS011;65651;53.154;17.916;2023-08-21T08:39:43;6.20;;;2.00;;
76725;SDS011;65651;53.154;17.916;2023-08-21T08:42:14;7.20;;;1.40;;
76725;SDS011;65651;53.154;17.916;2023-08-21T08:44:43;2.80;;;1.20;;
76725;SDS011;65651;53.154;17.916;2023-08-21T08:47:11;5.90;;;1.80;;
76725;SDS011;65651;53.154;17.916;2023-08-21T08:49:38;2.90;;;1.30;;
76725;SDS011;65651;53.154;17.916;2023-08-21T08:52:06;3.00;;;1.40;;
76725;SDS011;65651;53.154;17.916;2023-08-21T08:54:34;2.20;;;1.20;;
76725;SDS011;65651;53.154;17.916;2023-08-21T08:57:04;2.10;;;1.50;;
76725;SDS011;65651;53.154;17.916;2023-08-21T08:59:34;3.50;;;1.10;;
76725;SDS011;65651;53.154;17.916;2023-08-21T09:02:02;4.60;;;1.50;;
76725;SDS011;65651;53.154;17.916;2023-08-21T09:04:29;4.00;;;1.50;;
76725;SDS011;65651;53.154;17.916;2023-08-21T09:07:09;4.90;;;1.40;;
76725;SDS011;65651;53.154;17.916;2023-08-21T09:09:38;1.80;;;1.00;;
76725;SDS011;65651;53.154;17.916;2023-08-21T09:12:09;2.90;;;1.50;;
76725;SDS011;65651;53.154;17.916;2023-08-21T09:14:41;3.20;;;1.00;;
76725;SDS011;65651;53.154;17.916;2023-08-21T09:17:09;2.90;;;1.50;;
76725;SDS011;65651;53.154;17.916;2023-08-21T09:19:37;3.20;;;1.30;;
76725;SDS011;65651;53.154;17.916;2023-08-21T09:22:08;3.20;;;1.40;;
76725;SDS011;65651;53.154;17.916;2023-08-21T09:24:59;3.50;;;1.30;;
76725;SDS011;65651;53.154;17.916;2023-08-21T09:27:38;3.70;;;1.30;;
76725;SDS011;65651;53.154;17.916;2023-08-21T09:30:08;2.00;;;1.30;;
76725;SDS011;65651;53.154;17.916;2023-08-21T09:32:52;6.30;;;1.60;;
76725;SDS011;65651;53.154;17.916;2023-08-21T09:35:21;5.20;;;1.40;;
76725;SDS011;65651;53.154;17.916;2023-08-21T09:37:49;6.90;;;1.50;;
76725;SDS011;65651;53.154;17.916;2023-08-21T09:40:22;4.50;;;1.30;;
76725;SDS011;65651;53.154;17.916;2023-08-21T09:42:53;2.80;;;1.60;;
76725;SDS011;65651;53.154;17.916;2023-08-21T09:45:23;4.40;;;1.30;;
76725;SDS011;65651;53.154;17.916;2023-08-21T09:47:52;4.50;;;1.50;;
76725;SDS011;65651;53.154;17.916;2023-08-21T09:50:20;5.90;;;1.40;;
76725;SDS011;65651;53.154;17.916;2023-08-21T09:52:48;7.10;;;1.40;;
76725;SDS011;65651;53.154;17.916;2023-08-21T09:55:16;3.80;;;1.50;;
76725;SDS011;65651;53.154;17.916;2023-08-21T09:57:45;2.10;;;1.30;;
76725;SDS011;65651;53.154;17.916;2023-08-21T10:00:12;2.10;;;1.20;;
76725;SDS011;65651;53.154;17.916;2023-08-21T10:02:42;7.80;;;1.20;;
76725;SDS011;65651;53.154;17.916;2023-08-21T10:05:15;1.70;;;0.90;;
76725;SDS011;65651;53.154;17.916;2023-08-21T10:07:46;2.80;;;1.40;;
76725;SDS011;65651;53.154;17.916;2023-08-21T10:10:15;4.60;;;1.40;;
76725;SDS011;65651;53.154;17.916;2023-08-21T10:12:43;3.10;;;1.20;;
76725;SDS011;65651;53.154;17.916;2023-08-21T10:15:11;1.70;;;0.80;;
76725;SDS011;65651;53.154;17.916;2023-08-21T10:17:38;5.60;;;1.40;;
76725;SDS011;65651;53.154;17.916;2023-08-21T10:20:06;6.70;;;1.50;;
76725;SDS011;65651;53.154;17.916;2023-08-21T10:25:16;5.30;;;1.40;;
76725;SDS011;65651;53.154;17.916;2023-08-21T10:27:52;3.50;;;1.50;;
76725;SDS011;65651;53.154;17.916;2023-08-21T10:30:22;4.20;;;1.40;;
76725;SDS011;65651;53.154;17.916;2023-08-21T10:32:51;3.10;;;1.60;;
76725;SDS011;65651;53.154;17.916;2023-08-21T10:35:32;9.00;;;2.00;;
76725;SDS011;65651;53.154;17.916;2023-08-21T10:40:39;2.90;;;1.20;;
76725;SDS011;65651;53.154;17.916;2023-08-21T10:46:14;4.60;;;1.30;;
76725;SDS011;65651;53.154;17.916;2023-08-21T10:48:42;8.40;;;1.30;;
76725;SDS011;65651;53.154;17.916;2023-08-21T10:51:09;3.20;;;1.10;;
76725;SDS011;65651;53.154;17.916;2023-08-21T10:53:39;3.00;;;1.20;;
76725;SDS011;65651;53.154;17.916;2023-08-21T10:56:08;4.70;;;1.20;;
76725;SDS011;65651;53.154;17.916;2023-08-21T10:58:43;4.60;;;1.70;;
76725;SDS011;65651;53.154;17.916;2023-08-21T11:01:12;5.20;;;1.20;;
76725;SDS011;65651;53.154;17.916;2023-08-21T11:03:40;4.40;;;1.30;;
76725;SDS011;65651;53.154;17.916;2023-08-21T11:06:11;7.10;;;1.50;;
76725;SDS011;65651;53.154;17.916;2023-08-21T11:08:41;16.10;;;3.00;;
76725;SDS011;65651;53.154;17.916;2023-08-21T11:11:09;4.70;;;1.40;;
76725;SDS011;65651;53.154;17.916;2023-08-21T11:13:37;6.00;;;1.40;;
76725;SDS011;65651;53.154;17.916;2023-08-21T11:16:05;3.70;;;1.10;;
76725;SDS011;65651;53.154;17.916;2023-08-21T11:18:33;6.70;;;1.70;;
76725;SDS011;65651;53.154;17.916;2023-08-21T11:21:04;2.40;;;1.20;;
76725;SDS011;65651;53.154;17.916;2023-08-21T11:23:33;4.30;;;1.40;;
76725;SDS011;65651;53.154;17.916;2023-08-21T11:26:02;3.00;;;1.40;;
76725;SDS011;65651;53.154;17.916;2023-08-21T11:28:30;2.90;;;1.30;;
76725;SDS011;65651;53.154;17.916;2023-08-21T11:30:59;4.30;;;1.30;;
76725;SDS011;65651;53.154;17.916;2023-08-21T11:33:27;4.40;;;1.40;;
76725;SDS011;65651;53.154;17.916;2023-08-21T11:35:55;2.70;;;1.50;;
76725;SDS011;65651;53.154;17.916;2023-08-21T11:38:24;2.90;;;1.50;;
76725;SDS011;65651;53.154;17.916;2023-08-21T11:40:54;3.70;;;1.40;;
76725;SDS011;65651;53.154;17.916;2023-08-21T11:43:35;2.50;;;1.20;;
76725;SDS011;65651;53.154;17.916;2023-08-21T11:46:04;19.60;;;2.10;;
76725;SDS011;65651;53.154;17.916;2023-08-21T11:48:32;4.00;;;1.40;;
76725;SDS011;65651;53.154;17.916;2023-08-21T11:51:00;2.20;;;0.90;;
76725;SDS011;65651;53.154;17.916;2023-08-21T11:56:03;2.80;;;0.90;;
76725;SDS011;65651;53.154;17.916;2023-08-21T11:58:42;5.50;;;1.50;;
76725;SDS011;65651;53.154;17.916;2023-08-21T12:01:18;1.70;;;1.20;;
76725;SDS011;65651;53.154;17.916;2023-08-21T12:03:46;2.80;;;1.50;;
76725;SDS011;65651;53.154;17.916;2023-08-21T12:06:21;2.60;;;1.20;;
76725;SDS011;65651;53.154;17.916;2023-08-21T12:08:48;5.50;;;1.30;;
76725;SDS011;65651;53.154;17.916;2023-08-21T12:11:16;4.30;;;1.50;;
76725;SDS011;65651;53.154;17.916;2023-08-21T12:13:43;3.10;;;1.40;;
76725;SDS011;65651;53.154;17.916;2023-08-21T12:16:11;5.30;;;1.70;;
76725;SDS011;65651;53.154;17.916;2023-08-21T12:18:39;2.90;;;1.10;;
76725;SDS011;65651;53.154;17.916;2023-08-21T12:21:06;2.40;;;1.10;;
76725;SDS011;65651;53.154;17.916;2023-08-21T12:23:34;3.50;;;1.70;;
76725;SDS011;65651;53.154;17.916;2023-08-21T12:26:02;3.50;;;1.60;;
76725;SDS011;65651;53.154;17.916;2023-08-21T12:28:29;6.90;;;1.70;;
76725;SDS011;65651;53.154;17.916;2023-08-21T12:30:57;5.60;;;1.80;;
76725;SDS011;65651;53.154;17.916;2023-08-21T12:33:25;6.00;;;1.70;;
76725;SDS011;65651;53.154;17.916;2023-08-21T12:35:53;6.80;;;1.80;;
76725;SDS011;65651;53.154;17.916;2023-08-21T12:38:21;5.40;;;1.80;;
76725;SDS011;65651;53.154;17.916;2023-08-21T12:40:51;2.70;;;1.40;;
76725;SDS011;65651;53.154;17.916;2023-08-21T12:43:19;7.50;;;2.30;;
76725;SDS011;65651;53.154;17.916;2023-08-21T12:45:46;7.30;;;1.80;;
76725;SDS011;65651;53.154;17.916;2023-08-21T12:48:14;5.50;;;1.50;;
76725;SDS011;65651;53.154;17.916;2023-08-21T12:50:41;4.70;;;1.80;;
76725;SDS011;65651;53.154;17.916;2023-08-21T12:53:08;8.30;;;2.30;;
76725;SDS011;65651;53.154;17.916;2023-08-21T12:55:36;7.60;;;2.00;;
76725;SDS011;65651;53.154;17.916;2023-08-21T12:58:03;4.60;;;1.90;;
76725;SDS011;65651;53.154;17.916;2023-08-21T13:00:31;8.00;;;1.80;;
76725;SDS011;65651;53.154;17.916;2023-08-21T13:03:01;6.60;;;1.90;;
76725;SDS011;65651;53.154;17.916;2023-08-21T13:05:30;4.70;;;1.50;;
76725;SDS011;65651;53.154;17.916;2023-08-21T13:07:57;3.70;;;1.50;;
76725;SDS011;65651;53.154;17.916;2023-08-21T13:10:24;4.40;;;1.60;;
76725;SDS011;65651;53.154;17.916;2023-08-21T13:12:52;3.70;;;1.80;;
76725;SDS011;65651;53.154;17.916;2023-08-21T13:15:19;6.60;;;2.30;;
76725;SDS011;65651;53.154;17.916;2023-08-21T13:17:46;7.70;;;2.00;;
76725;SDS011;65651;53.154;17.916;2023-08-21T13:20:14;6.40;;;2.30;;
76725;SDS011;65651;53.154;17.916;2023-08-21T13:22:48;6.40;;;2.20;;
76725;SDS011;65651;53.154;17.916;2023-08-21T13:25:18;7.20;;;2.00;;
76725;SDS011;65651;53.154;17.916;2023-08-21T13:27:47;7.80;;;2.20;;
76725;SDS011;65651;53.154;17.916;2023-08-21T13:30:14;3.90;;;1.70;;
76725;SDS011;65651;53.154;17.916;2023-08-21T13:32:42;4.10;;;1.50;;
76725;SDS011;65651;53.154;17.916;2023-08-21T13:35:11;3.90;;;1.50;;
76725;SDS011;65651;53.154;17.916;2023-08-21T13:37:38;5.50;;;2.00;;
76725;SDS011;65651;53.154;17.916;2023-08-21T13:40:07;4.40;;;2.00;;
76725;SDS011;65651;53.154;17.916;2023-08-21T13:42:37;4.70;;;1.70;;
76725;SDS011;65651;53.154;17.916;2023-08-21T13:45:08;6.20;;;1.50;;
76725;SDS011;65651;53.154;17.916;2023-08-21T13:47:39;6.90;;;1.60;;
76725;SDS011;65651;53.154;17.916;2023-08-21T13:50:08;5.90;;;3.80;;
76725;SDS011;65651;53.154;17.916;2023-08-21T13:52:36;7.00;;;3.10;;
76725;SDS011;65651;53.154;17.916;2023-08-21T13:55:07;7.80;;;1.80;;
76725;SDS011;65651;53.154;17.916;2023-08-21T13:57:36;4.30;;;1.30;;
76725;SDS011;65651;53.154;17.916;2023-08-21T14:00:07;10.50;;;2.20;;
76725;SDS011;65651;53.154;17.916;2023-08-21T14:02:40;8.30;;;3.10;;
76725;SDS011;65651;53.154;17.916;2023-08-21T14:05:08;4.50;;;1.30;;
76725;SDS011;65651;53.154;17.916;2023-08-21T14:07:37;4.50;;;1.50;;
76725;SDS011;65651;53.154;17.916;2023-08-21T14:10:04;14.20;;;2.00;;
76725;SDS011;65651;53.154;17.916;2023-08-21T14:12:32;9.20;;;2.00;;
76725;SDS011;65651;53.154;17.916;2023-08-21T14:14:59;5.10;;;1.50;;
76725;SDS011;65651;53.154;17.916;2023-08-21T14:17:27;4.40;;;1.80;;
76725;SDS011;65651;53.154;17.916;2023-08-21T14:19:55;6.00;;;2.10;;
76725;SDS011;65651;53.154;17.916;2023-08-21T14:22:22;4.50;;;2.10;;
76725;SDS011;65651;53.154;17.916;2023-08-21T14:24:51;5.20;;;2.30;;
76725;SDS011;65651;53.154;17.916;2023-08-21T14:27:18;4.80;;;2.30;;
76725;SDS011;65651;53.154;17.916;2023-08-21T14:29:45;8.00;;;3.00;;
76725;SDS011;65651;53.154;17.916;2023-08-21T14:32:16;7.80;;;3.70;;
76725;SDS011;65651;53.154;17.916;2023-08-21T14:34:43;10.80;;;2.20;;
76725;SDS011;65651;53.154;17.916;2023-08-21T14:37:10;4.70;;;1.60;;
76725;SDS011;65651;53.154;17.916;2023-08-21T14:39:42;6.50;;;2.30;;
76725;SDS011;65651;53.154;17.916;2023-08-21T14:42:10;7.90;;;1.80;;
76725;SDS011;65651;53.154;17.916;2023-08-21T14:44:38;3.90;;;1.60;;
76725;SDS011;65651;53.154;17.916;2023-08-21T14:47:05;5.60;;;1.80;;
76725;SDS011;65651;53.154;17.916;2023-08-21T14:49:33;5.60;;;1.90;;
76725;SDS011;65651;53.154;17.916;2023-08-21T14:52:00;5.60;;;2.00;;
76725;SDS011;65651;53.154;17.916;2023-08-21T14:54:27;2.80;;;1.70;;